Time;durP1;ratioP1;P1;durP2;ratioP2;P2;SDS_P1;SDS_P2;PMS_P1;PMS_P2;Temp;Humidity;BMP_temperature;BMP_pressure;BME280_temperature;BME280_humidity;BME280_pressure;Samples;Min_cycle;Max_cycle;Signal;HPM_P1;HPM_P2
2024/04/18 00:01:22;;;;;;;12.90;8.73;;;5.10;99.90;;;;;;5436547;26;20470;-79
2024/04/18 00:03:47;;;;;;;11.75;8.00;;;5.10;99.90;;;;;;5410772;26;20080;-79
2024/04/18 00:06:13;;;;;;;13.02;9.02;;;5.10;99.90;;;;;;5408144;26;20011;-78
2024/04/18 00:08:38;;;;;;;10.35;6.85;;;5.10;99.90;;;;;;5406089;26;20003;-78
2024/04/18 00:11:05;;;;;;;12.88;7.60;;;5.10;99.90;;;;;;5405531;26;20011;-78
2024/04/18 00:13:30;;;;;;;10.88;7.25;;;5.00;99.90;;;;;;5424392;26;20018;-78
2024/04/18 00:15:56;;;;;;;10.32;6.60;;;5.00;99.90;;;;;;5434253;26;20014;-79
2024/04/18 00:18:24;;;;;;;9.82;7.35;;;4.90;99.90;;;;;;5439677;26;20010;-79
2024/04/18 00:20:50;;;;;;;8.45;5.82;;;4.90;99.90;;;;;;5413686;26;20444;-78
2024/04/18 00:23:15;;;;;;;8.88;6.00;;;5.00;99.90;;;;;;5424545;26;20010;-78
2024/04/18 00:25:41;;;;;;;11.80;7.32;;;5.00;99.90;;;;;;5406572;26;20035;-79
2024/04/18 00:28:07;;;;;;;11.95;7.15;;;5.10;99.90;;;;;;5440178;26;20002;-79
2024/04/18 00:30:32;;;;;;;9.23;6.22;;;5.10;99.90;;;;;;5424867;26;20003;-79
2024/04/18 00:32:58;;;;;;;10.65;6.93;;;5.00;99.90;;;;;;5430242;26;20030;-79
2024/04/18 00:35:23;;;;;;;13.27;7.22;;;5.00;99.90;;;;;;5433224;26;19999;-79
2024/04/18 00:37:49;;;;;;;7.47;5.35;;;5.10;99.90;;;;;;5408257;26;20420;-78
2024/04/18 00:40:14;;;;;;;14.15;7.03;;;5.10;99.90;;;;;;5428376;26;20087;-79
2024/04/18 00:42:40;;;;;;;10.77;7.32;;;5.20;99.90;;;;;;5430499;26;21437;-79
2024/04/18 00:45:06;;;;;;;9.43;6.43;;;5.20;99.90;;;;;;5426581;26;20035;-79
2024/04/18 00:47:31;;;;;;;9.93;6.97;;;5.10;99.90;;;;;;5379700;26;20448;-79
2024/04/18 00:49:57;;;;;;;15.55;7.57;;;5.10;99.90;;;;;;5431367;26;19999;-79
2024/04/18 00:52:23;;;;;;;12.85;7.50;;;5.10;99.90;;;;;;5402056;26;20458;-79
2024/04/18 00:54:48;;;;;;;9.93;6.28;;;5.10;99.90;;;;;;5424761;26;20003;-79
2024/04/18 00:57:14;;;;;;;8.77;6.90;;;5.20;99.90;;;;;;5399138;26;20002;-79
2024/04/18 00:59:40;;;;;;;9.20;6.80;;;5.10;99.90;;;;;;5402717;26;20002;-79
2024/04/18 01:02:05;;;;;;;11.40;7.28;;;5.20;99.90;;;;;;5419391;26;19999;-79
2024/04/18 01:04:31;;;;;;;10.10;7.75;;;5.20;99.90;;;;;;5426201;26;20396;-79
2024/04/18 01:06:57;;;;;;;9.10;6.95;;;5.10;99.90;;;;;;5423079;26;20484;-78
2024/04/18 01:09:22;;;;;;;11.13;6.90;;;5.10;99.90;;;;;;5404949;26;20079;-79
2024/04/18 01:11:48;;;;;;;12.13;6.53;;;5.10;99.90;;;;;;5431437;26;20009;-78
2024/04/18 01:14:13;;;;;;;7.95;6.53;;;5.10;99.90;;;;;;5420214;26;20339;-79
2024/04/18 01:16:39;;;;;;;11.00;6.68;;;5.10;99.90;;;;;;5431645;26;20003;-79
2024/04/18 01:19:05;;;;;;;10.98;6.95;;;5.10;99.90;;;;;;5395469;26;20010;-78
2024/04/18 01:21:30;;;;;;;11.55;7.03;;;5.20;99.90;;;;;;5420346;26;20025;-78
2024/04/18 01:23:56;;;;;;;14.32;8.20;;;5.10;99.90;;;;;;5427478;26;19998;-79
2024/04/18 01:26:22;;;;;;;9.77;7.57;;;5.10;99.90;;;;;;5426708;26;20071;-78
2024/04/18 01:28:47;;;;;;;14.18;8.65;;;5.10;99.90;;;;;;5399908;26;19999;-78
2024/04/18 01:31:13;;;;;;;12.48;7.82;;;5.00;99.90;;;;;;5434993;26;20002;-77
2024/04/18 01:33:38;;;;;;;11.45;7.40;;;5.10;99.90;;;;;;5409101;26;20006;-78
2024/04/18 01:36:04;;;;;;;10.95;6.85;;;5.10;99.90;;;;;;5430822;26;20483;-79
2024/04/18 01:38:30;;;;;;;11.70;7.28;;;5.10;99.90;;;;;;5403509;26;20335;-78
2024/04/18 01:40:55;;;;;;;11.30;7.30;;;5.00;99.90;;;;;;5376999;26;20035;-78
2024/04/18 01:43:21;;;;;;;10.38;7.03;;;5.10;99.90;;;;;;5426680;26;19998;-79
2024/04/18 01:45:46;;;;;;;11.27;7.72;;;5.10;99.90;;;;;;5424500;26;19999;-79
2024/04/18 01:48:12;;;;;;;10.43;7.65;;;5.00;99.90;;;;;;5401959;26;20011;-78
2024/04/18 01:50:37;;;;;;;10.18;7.40;;;5.00;99.90;;;;;;5405263;26;20011;-78
2024/04/18 01:53:04;;;;;;;11.05;6.60;;;4.90;99.90;;;;;;5414998;26;20004;-79
2024/04/18 01:55:30;;;;;;;11.88;6.80;;;5.00;99.90;;;;;;5410532;26;20003;-79
2024/04/18 01:57:55;;;;;;;10.38;6.28;;;5.00;99.90;;;;;;5425218;26;20332;-78
2024/04/18 02:00:21;;;;;;;9.63;6.65;;;5.00;99.90;;;;;;5427230;26;20798;-78
2024/04/18 02:02:46;;;;;;;15.38;7.78;;;5.00;99.90;;;;;;5396796;26;20015;-80
2024/04/18 02:05:12;;;;;;;9.55;6.68;;;5.00;99.90;;;;;;5418869;26;20015;-78
2024/04/18 02:07:37;;;;;;;9.50;6.75;;;4.90;99.90;;;;;;5433723;26;20010;-79
2024/04/18 02:10:03;;;;;;;13.27;7.45;;;4.90;99.90;;;;;;5431197;26;20448;-79
2024/04/18 02:12:29;;;;;;;11.90;7.18;;;4.90;99.90;;;;;;5422996;26;20077;-79
2024/04/18 02:14:54;;;;;;;11.07;6.72;;;4.90;99.90;;;;;;5427070;26;19999;-78
2024/04/18 02:17:20;;;;;;;11.23;7.60;;;4.80;99.90;;;;;;5426741;26;20022;-78
2024/04/18 02:19:45;;;;;;;11.55;7.55;;;4.80;99.90;;;;;;5398535;26;19999;-78
2024/04/18 02:22:11;;;;;;;9.32;6.78;;;4.80;99.90;;;;;;5425087;26;19999;-78
2024/04/18 02:25:06;;;;;;;10.90;7.22;;;4.80;99.90;;;;;;5431358;26;19999;-77
2024/04/18 02:27:32;;;;;;;14.63;6.53;;;4.70;99.90;;;;;;5418464;26;20081;-78
2024/04/18 02:29:58;;;;;;;11.88;7.30;;;4.80;99.90;;;;;;5402512;26;20347;-78
2024/04/18 02:32:23;;;;;;;12.38;7.15;;;4.80;99.90;;;;;;5428800;26;20003;-78
2024/04/18 02:34:49;;;;;;;12.30;7.18;;;4.80;99.90;;;;;;5430490;26;19999;-78
2024/04/18 02:37:14;;;;;;;12.80;7.32;;;4.90;99.90;;;;;;5431777;26;20008;-78
2024/04/18 02:39:42;;;;;;;11.95;7.10;;;4.80;99.90;;;;;;5434984;26;20003;-79
2024/04/18 02:42:07;;;;;;;9.98;7.60;;;4.80;99.90;;;;;;5403762;26;19999;-77
2024/04/18 02:44:33;;;;;;;8.77;6.45;;;4.80;99.90;;;;;;5395180;26;20044;-78
2024/04/18 02:46:59;;;;;;;8.88;6.55;;;4.90;99.90;;;;;;5424859;26;19998;-80
2024/04/18 02:49:24;;;;;;;11.98;7.18;;;4.90;99.90;;;;;;5433249;26;20073;-78
2024/04/18 02:51:50;;;;;;;10.25;7.25;;;4.90;99.90;;;;;;5436349;26;19990;-80
2024/04/18 02:54:15;;;;;;;10.20;6.90;;;4.90;99.90;;;;;;5405658;26;20010;-77
2024/04/18 02:56:41;;;;;;;12.45;6.40;;;4.80;99.90;;;;;;5407028;26;19992;-79
2024/04/18 02:59:06;;;;;;;11.20;7.10;;;4.90;99.90;;;;;;5429876;26;19995;-79
2024/04/18 03:01:33;;;;;;;15.13;6.90;;;4.80;99.90;;;;;;5407243;26;20376;-80
2024/04/18 03:03:58;;;;;;;13.07;6.80;;;4.90;99.90;;;;;;5406603;26;19994;-79
2024/04/18 03:06:25;;;;;;;9.73;6.75;;;4.80;99.90;;;;;;5425033;26;19995;-80
2024/04/18 03:08:50;;;;;;;12.57;7.68;;;4.80;99.90;;;;;;5400162;26;20474;-79
2024/04/18 03:11:16;;;;;;;10.50;7.07;;;4.80;99.90;;;;;;5361674;26;20007;-79
2024/04/18 03:13:41;;;;;;;9.13;6.32;;;4.80;99.90;;;;;;5401529;26;20007;-79
2024/04/18 03:16:07;;;;;;;9.98;6.35;;;4.80;99.90;;;;;;5424420;26;20011;-79
2024/04/18 03:18:32;;;;;;;11.20;5.90;;;4.80;99.90;;;;;;5428225;26;20027;-79
2024/04/18 03:20:58;;;;;;;9.07;6.28;;;4.80;99.90;;;;;;5394592;26;20003;-79
2024/04/18 03:23:23;;;;;;;9.82;6.13;;;4.80;99.90;;;;;;5434514;26;20015;-79
2024/04/18 03:25:49;;;;;;;12.77;6.90;;;4.80;99.90;;;;;;5429256;26;20034;-80
2024/04/18 03:28:15;;;;;;;10.30;6.65;;;4.80;99.90;;;;;;5398466;26;20002;-79
2024/04/18 03:30:40;;;;;;;13.48;6.90;;;4.80;99.90;;;;;;5427411;26;20002;-79
2024/04/18 03:33:06;;;;;;;12.65;6.88;;;4.70;99.90;;;;;;5423427;26;19999;-80
2024/04/18 03:35:32;;;;;;;10.73;5.82;;;4.70;99.90;;;;;;5422937;26;20004;-79
2024/04/18 03:37:57;;;;;;;8.75;6.22;;;4.70;99.90;;;;;;5426487;26;20042;-79
2024/04/18 03:40:23;;;;;;;8.82;6.63;;;4.70;99.90;;;;;;5430728;26;20063;-79
2024/04/18 03:42:49;;;;;;;8.95;6.10;;;4.70;99.90;;;;;;5430375;26;20038;-80
2024/04/18 03:45:15;;;;;;;10.00;5.80;;;4.70;99.90;;;;;;5429223;26;20396;-79
2024/04/18 03:47:40;;;;;;;6.18;4.25;;;4.70;99.90;;;;;;5373822;26;20460;-79
2024/04/18 03:50:06;;;;;;;9.15;5.60;;;4.80;99.90;;;;;;5423751;26;20447;-79
2024/04/18 03:52:31;;;;;;;12.02;6.78;;;4.80;99.90;;;;;;5426776;26;20463;-79
2024/04/18 03:54:57;;;;;;;9.73;6.63;;;4.80;99.90;;;;;;5424113;26;20011;-79
2024/04/18 03:57:22;;;;;;;12.43;8.00;;;4.80;99.90;;;;;;5435588;26;20011;-79
2024/04/18 03:59:48;;;;;;;12.65;7.82;;;4.70;99.90;;;;;;5436764;26;21126;-80
2024/04/18 04:02:13;;;;;;;9.68;7.78;;;4.70;99.90;;;;;;5409333;26;20072;-79
2024/04/18 04:04:39;;;;;;;13.68;7.93;;;4.70;99.90;;;;;;5429827;26;19991;-79
2024/04/18 04:07:05;;;;;;;10.98;7.68;;;4.70;99.90;;;;;;5440411;26;19992;-79
2024/04/18 04:09:30;;;;;;;12.13;7.00;;;4.70;99.90;;;;;;5407662;26;20003;-79
2024/04/18 04:11:58;;;;;;;12.45;7.60;;;4.70;99.90;;;;;;5404976;26;20010;-79
2024/04/18 04:14:24;;;;;;;11.52;7.43;;;4.70;99.90;;;;;;5435216;26;20366;-78
2024/04/18 04:16:49;;;;;;;13.02;7.60;;;4.70;99.90;;;;;;5429562;26;20007;-79
2024/04/18 04:19:15;;;;;;;13.27;6.97;;;4.60;99.90;;;;;;5389395;26;20339;-79
2024/04/18 04:21:40;;;;;;;9.00;6.75;;;4.60;99.90;;;;;;5422542;26;19999;-79
2024/04/18 04:24:06;;;;;;;10.98;7.00;;;4.60;99.90;;;;;;5396957;26;20053;-78
2024/04/18 04:26:33;;;;;;;8.77;6.03;;;4.60;99.90;;;;;;5435163;26;20011;-79
2024/04/18 04:29:00;;;;;;;9.30;6.65;;;4.60;99.90;;;;;;5432438;26;20007;-79
2024/04/18 04:31:28;;;;;;;10.55;7.03;;;4.60;99.90;;;;;;5424402;26;20471;-78
2024/04/18 04:33:54;;;;;;;9.63;6.72;;;4.60;99.90;;;;;;5430495;26;20524;-76
2024/04/18 04:36:20;;;;;;;11.43;6.68;;;4.60;99.90;;;;;;5422321;26;20027;-79
2024/04/18 04:38:46;;;;;;;13.20;6.85;;;4.60;99.90;;;;;;5419291;26;20068;-79
2024/04/18 04:41:13;;;;;;;6.05;4.40;;;4.60;99.90;;;;;;5396983;26;20028;-79
2024/04/18 04:43:39;;;;;;;12.65;6.72;;;4.60;99.90;;;;;;5394974;26;20824;-80
2024/04/18 04:46:05;;;;;;;8.77;5.22;;;4.60;99.90;;;;;;5434452;26;20006;-80
2024/04/18 04:48:31;;;;;;;10.20;6.60;;;4.60;99.90;;;;;;5434181;26;20003;-79
2024/04/18 04:51:01;;;;;;;11.75;7.30;;;4.70;99.90;;;;;;5429694;26;20020;-79
2024/04/18 04:53:27;;;;;;;12.93;6.88;;;4.60;99.90;;;;;;5429844;26;20076;-78
2024/04/18 04:55:53;;;;;;;10.70;7.32;;;4.60;99.90;;;;;;5430840;26;20010;-77
2024/04/18 04:58:18;;;;;;;17.15;8.15;;;4.60;99.90;;;;;;5405512;26;20032;-78
2024/04/18 05:00:44;;;;;;;18.17;7.72;;;4.50;99.90;;;;;;5435283;26;20002;-78
2024/04/18 05:03:09;;;;;;;15.52;7.63;;;4.50;99.90;;;;;;5426559;26;20022;-78
2024/04/18 05:05:35;;;;;;;12.30;6.45;;;4.50;99.90;;;;;;5426618;26;20038;-79
2024/04/18 05:08:00;;;;;;;11.15;7.10;;;4.60;99.90;;;;;;5425442;26;19999;-77
2024/04/18 05:10:26;;;;;;;10.40;7.13;;;4.60;99.90;;;;;;5398763;26;20072;-78
2024/04/18 05:12:52;;;;;;;12.18;7.28;;;4.60;99.90;;;;;;5430487;26;20011;-78
2024/04/18 05:15:17;;;;;;;13.90;6.63;;;4.60;99.90;;;;;;5430071;26;20801;-78
2024/04/18 05:17:43;;;;;;;11.52;7.22;;;4.60;99.90;;;;;;5425355;26;20056;-78
2024/04/18 05:20:09;;;;;;;12.93;7.32;;;4.60;99.90;;;;;;5424055;26;20015;-78
2024/04/18 05:22:34;;;;;;;13.43;7.43;;;4.70;99.90;;;;;;5428407;26;20108;-78
2024/04/18 05:25:00;;;;;;;10.48;7.35;;;4.70;99.90;;;;;;5396436;26;19999;-78
2024/04/18 05:27:25;;;;;;;15.65;7.20;;;4.80;99.90;;;;;;5429608;26;20039;-78
2024/04/18 05:32:35;;;;;;;19.05;7.70;;;4.80;99.90;;;;;;5423550;26;20071;-77
2024/04/18 05:35:01;;;;;;;15.20;7.95;;;4.80;99.90;;;;;;5401907;26;20022;-78
2024/04/18 05:37:29;;;;;;;18.73;7.35;;;4.80;99.90;;;;;;5396952;26;20015;-78
2024/04/18 05:39:55;;;;;;;12.00;8.35;;;4.90;99.90;;;;;;5412406;26;20018;-78
2024/04/18 05:42:22;;;;;;;15.20;7.20;;;4.90;99.90;;;;;;5405520;26;19999;-77
2024/04/18 05:44:48;;;;;;;12.35;6.95;;;5.00;99.90;;;;;;5426561;26;20015;-78
2024/04/18 05:47:13;;;;;;;15.43;8.25;;;5.00;99.90;;;;;;5434209;26;20592;-77
2024/04/18 05:49:39;;;;;;;16.05;6.90;;;5.00;99.90;;;;;;5422287;26;20447;-77
2024/04/18 05:52:04;;;;;;;14.95;7.30;;;5.00;99.90;;;;;;5431935;26;20003;-77
2024/04/18 05:54:30;;;;;;;17.85;7.43;;;5.10;99.90;;;;;;5428043;26;20343;-78
2024/04/18 05:56:56;;;;;;;18.58;7.30;;;5.10;99.90;;;;;;5432757;26;20003;-78
2024/04/18 05:59:21;;;;;;;15.00;7.57;;;5.10;99.90;;;;;;5434055;26;20083;-77
2024/04/18 06:01:47;;;;;;;13.63;6.45;;;5.20;99.90;;;;;;5403434;26;20006;-77
2024/04/18 06:04:12;;;;;;;8.75;6.05;;;5.20;99.90;;;;;;5430162;26;20035;-78
2024/04/18 06:06:40;;;;;;;14.40;6.30;;;5.30;99.90;;;;;;5407969;26;20013;-77
2024/04/18 06:09:07;;;;;;;14.10;6.40;;;5.30;99.90;;;;;;5405799;26;20003;-78
2024/04/18 06:11:35;;;;;;;15.25;5.30;;;5.30;99.90;;;;;;5393505;26;20019;-77
2024/04/18 06:14:04;;;;;;;13.07;6.40;;;5.40;99.90;;;;;;5393704;26;20071;-77
2024/04/18 06:16:35;;;;;;;14.65;6.53;;;5.40;99.90;;;;;;5426042;26;19998;-77
2024/04/18 06:19:01;;;;;;;23.15;7.03;;;5.50;99.90;;;;;;5437921;26;21035;-77
2024/04/18 06:21:27;;;;;;;10.10;5.30;;;5.50;99.90;;;;;;5428068;26;20026;-76
2024/04/18 06:23:53;;;;;;;15.23;7.20;;;5.50;99.90;;;;;;5427982;26;20050;-77
2024/04/18 06:26:18;;;;;;;8.20;5.18;;;5.50;99.90;;;;;;5439737;26;19999;-77
2024/04/18 06:28:45;;;;;;;7.68;4.93;;;5.40;99.90;;;;;;5400269;26;20006;-78
2024/04/18 06:31:11;;;;;;;13.95;5.60;;;5.40;99.90;;;;;;5433532;26;20501;-77
2024/04/18 06:33:37;;;;;;;10.65;4.93;;;5.40;99.90;;;;;;5431143;26;20002;-77
2024/04/18 06:36:03;;;;;;;11.75;5.00;;;5.40;99.90;;;;;;5409704;26;20472;-77
2024/04/18 06:38:28;;;;;;;5.93;4.32;;;5.50;99.90;;;;;;5406068;26;19999;-77
2024/04/18 06:40:54;;;;;;;9.55;4.82;;;5.50;99.90;;;;;;5406123;26;20010;-77
2024/04/18 06:43:19;;;;;;;12.35;5.05;;;5.50;99.90;;;;;;5425038;26;20014;-77
2024/04/18 06:45:45;;;;;;;12.32;4.65;;;5.60;99.90;;;;;;5399304;26;20000;-77
2024/04/18 06:48:10;;;;;;;9.27;4.20;;;5.60;99.90;;;;;;5420961;26;20022;-78
2024/04/18 06:50:38;;;;;;;14.90;4.18;;;5.60;99.90;;;;;;5429476;26;20003;-77
2024/04/18 06:53:05;;;;;;;11.70;3.75;;;5.60;99.90;;;;;;5402873;26;20006;-78
2024/04/18 06:55:31;;;;;;;9.07;3.80;;;5.70;99.90;;;;;;5432008;26;20006;-77
2024/04/18 06:57:57;;;;;;;8.77;4.47;;;5.70;99.90;;;;;;5426876;26;20011;-78
2024/04/18 07:00:23;;;;;;;8.00;3.50;;;5.80;99.90;;;;;;5394131;26;20003;-78
2024/04/18 07:02:48;;;;;;;8.63;4.00;;;5.80;99.90;;;;;;5433846;26;20720;-77
2024/04/18 07:05:14;;;;;;;5.13;3.53;;;5.90;99.90;;;;;;5399245;26;20538;-77
2024/04/18 07:07:39;;;;;;;10.88;3.83;;;6.00;99.90;;;;;;5434211;26;20067;-78
2024/04/18 07:10:05;;;;;;;11.80;3.85;;;6.10;99.90;;;;;;5427165;26;20077;-77
2024/04/18 07:12:31;;;;;;;8.98;3.70;;;6.20;99.90;;;;;;5429236;26;20006;-78
2024/04/18 07:14:58;;;;;;;8.02;3.33;;;6.20;99.90;;;;;;5398584;26;20068;-78
2024/04/18 07:17:24;;;;;;;6.88;4.32;;;6.30;99.90;;;;;;5373543;26;19995;-77
2024/04/18 07:19:49;;;;;;;9.45;3.58;;;6.40;99.90;;;;;;5430837;26;19998;-79
2024/04/18 07:22:15;;;;;;;9.23;3.38;;;6.50;99.90;;;;;;5436274;26;20343;-78
2024/04/18 07:24:44;;;;;;;5.68;3.35;;;6.60;99.90;;;;;;5434723;26;20477;-78
2024/04/18 07:27:12;;;;;;;9.90;3.45;;;6.70;99.90;;;;;;5438318;26;20010;-78
2024/04/18 07:29:38;;;;;;;10.52;3.53;;;6.70;99.90;;;;;;5429663;26;20332;-78
2024/04/18 07:32:05;;;;;;;8.57;3.28;;;6.80;99.90;;;;;;5396629;26;20017;-78
2024/04/18 07:34:31;;;;;;;11.07;3.90;;;6.80;99.90;;;;;;5427106;26;20060;-78
2024/04/18 07:36:56;;;;;;;10.75;4.07;;;7.00;99.90;;;;;;5434400;26;20517;-78
2024/04/18 07:39:22;;;;;;;14.07;5.18;;;7.10;99.90;;;;;;5427923;26;20496;-77
2024/04/18 07:41:47;;;;;;;7.45;3.38;;;7.20;99.90;;;;;;5430764;26;20015;-78
2024/04/18 07:44:13;;;;;;;7.97;2.95;;;7.40;99.90;;;;;;5429435;26;19999;-77
2024/04/18 07:46:39;;;;;;;8.88;3.30;;;7.50;99.90;;;;;;5405558;26;20035;-77
2024/04/18 07:49:05;;;;;;;7.15;3.40;;;7.60;99.90;;;;;;5402099;26;20458;-77
2024/04/18 07:51:30;;;;;;;10.02;3.33;;;7.70;99.90;;;;;;5437528;26;20008;-77
2024/04/18 07:53:57;;;;;;;6.00;2.63;;;7.60;99.90;;;;;;5431396;26;21189;-77
2024/04/18 07:56:22;;;;;;;7.13;3.63;;;7.80;99.90;;;;;;5434492;26;20018;-78
2024/04/18 07:58:48;;;;;;;5.50;2.50;;;7.80;99.90;;;;;;5430239;26;20020;-78
2024/04/18 08:01:13;;;;;;;8.57;2.85;;;7.90;99.90;;;;;;5401332;26;20010;-78
2024/04/18 08:03:39;;;;;;;9.88;2.60;;;8.00;99.90;;;;;;5427893;26;20043;-78
2024/04/18 08:06:05;;;;;;;6.45;3.00;;;8.10;99.90;;;;;;5434473;26;20071;-78
2024/04/18 08:08:42;;;;;;;8.27;2.50;;;8.20;99.90;;;;;;5434464;26;20003;-77
2024/04/18 08:11:09;;;;;;;7.93;2.33;;;8.20;99.90;;;;;;5428446;26;20672;-77
2024/04/18 08:13:37;;;;;;;7.32;2.63;;;8.30;99.90;;;;;;5387835;26;20007;-78
2024/04/18 08:16:04;;;;;;;7.45;2.38;;;8.40;99.90;;;;;;5431223;26;20484;-78
2024/04/18 08:18:30;;;;;;;7.00;2.22;;;8.40;99.90;;;;;;5436627;26;20031;-78
2024/04/18 08:20:56;;;;;;;10.93;3.17;;;8.50;99.90;;;;;;5436806;26;20010;-78
2024/04/18 08:23:25;;;;;;;3.92;2.08;;;8.50;99.90;;;;;;5402876;26;20069;-78
2024/04/18 08:25:51;;;;;;;6.78;3.03;;;8.50;99.90;;;;;;5396191;26;20015;-77
2024/04/18 08:28:16;;;;;;;6.90;2.47;;;8.60;99.90;;;;;;5397541;26;20017;-77
2024/04/18 08:30:43;;;;;;;6.50;2.83;;;8.80;99.90;;;;;;5378501;26;20003;-77
2024/04/18 08:33:09;;;;;;;8.43;2.00;;;8.80;99.90;;;;;;5423749;26;20038;-77
2024/04/18 08:35:34;;;;;;;7.18;1.77;;;8.90;99.90;;;;;;5403187;26;20006;-77
2024/04/18 08:38:00;;;;;;;5.70;1.65;;;9.00;99.90;;;;;;5446543;26;20014;-78
2024/04/18 08:40:28;;;;;;;8.60;2.80;;;9.10;99.90;;;;;;5439310;26;20039;-77
2024/04/18 08:42:56;;;;;;;7.90;2.30;;;9.10;99.90;;;;;;5421830;26;20435;-77
2024/04/18 08:45:25;;;;;;;7.05;1.50;;;9.30;99.90;;;;;;5427439;26;20082;-77
2024/04/18 08:47:51;;;;;;;10.75;4.07;;;9.30;99.90;;;;;;5423554;26;20331;-78
2024/04/18 08:50:17;;;;;;;7.25;1.65;;;9.40;99.90;;;;;;5405423;26;20021;-78
2024/04/18 08:52:44;;;;;;;7.95;1.35;;;9.40;99.90;;;;;;5432063;26;20006;-78
2024/04/18 08:55:10;;;;;;;5.20;1.40;;;9.50;99.90;;;;;;5431719;26;20481;-78
2024/04/18 08:57:45;;;;;;;6.75;1.45;;;9.60;99.90;;;;;;5433859;26;20439;-78
2024/04/18 09:00:11;;;;;;;6.90;2.30;;;9.70;99.90;;;;;;5428128;26;20013;-78
2024/04/18 09:02:36;;;;;;;6.07;1.77;;;9.70;99.90;;;;;;5423309;26;20000;-77
2024/04/18 09:05:02;;;;;;;6.40;1.70;;;9.80;99.90;;;;;;5424602;26;20075;-78
2024/04/18 09:07:28;;;;;;;7.47;2.15;;;9.80;99.90;;;;;;5429509;26;19999;-78
2024/04/18 09:10:06;;;;;;;6.20;2.30;;;9.90;99.90;;;;;;5425100;26;20046;-78
2024/04/18 09:12:32;;;;;;;6.90;2.35;;;10.10;99.90;;;;;;5431445;26;20003;-77
2024/04/18 09:14:58;;;;;;;4.43;1.30;;;10.40;99.90;;;;;;5422214;26;20004;-78
2024/04/18 09:17:23;;;;;;;5.63;2.10;;;10.40;99.90;;;;;;5399360;26;20076;-78
2024/04/18 09:19:49;;;;;;;6.85;2.13;;;10.60;99.90;;;;;;5403241;26;20026;-78
2024/04/18 09:22:14;;;;;;;7.10;2.33;;;10.80;99.90;;;;;;5426775;26;20043;-78
2024/04/18 09:24:44;;;;;;;7.57;2.45;;;10.90;99.90;;;;;;5425456;26;20018;-78
2024/04/18 09:27:11;;;;;;;4.90;1.40;;;11.20;99.90;;;;;;5430121;26;20019;-78
2024/04/18 09:29:36;;;;;;;8.65;2.67;;;11.20;99.90;;;;;;5433347;26;20015;-78
2024/04/18 09:32:02;;;;;;;6.38;2.67;;;12.10;99.90;;;;;;5436397;26;19995;-78
2024/04/18 09:34:28;;;;;;;6.20;2.30;;;12.40;99.90;;;;;;5425079;26;20102;-78
2024/04/18 09:36:53;;;;;;;7.15;2.90;;;12.50;99.90;;;;;;5429871;26;20011;-79
2024/04/18 09:39:26;;;;;;;6.60;2.38;;;12.60;99.90;;;;;;5429149;26;20074;-78
2024/04/18 09:42:13;;;;;;;8.05;2.42;;;12.60;99.90;;;;;;5402595;26;20026;-78
2024/04/18 09:44:42;;;;;;;5.07;1.55;;;12.30;99.90;;;;;;5424943;26;20003;-78
2024/04/18 09:47:09;;;;;;;4.95;1.20;;;12.60;99.90;;;;;;5419890;26;20010;-78
2024/04/18 09:49:34;;;;;;;2.85;1.17;;;12.50;99.90;;;;;;5398693;26;20036;-78
2024/04/18 09:52:00;;;;;;;4.95;1.30;;;12.40;99.90;;;;;;5427401;26;20447;-79
2024/04/18 09:54:26;;;;;;;3.80;1.38;;;12.50;99.90;;;;;;5405517;26;19999;-78
2024/04/18 09:56:51;;;;;;;4.60;1.42;;;12.60;99.90;;;;;;5430763;26;20011;-78
2024/04/18 09:59:17;;;;;;;3.17;1.20;;;13.00;99.90;;;;;;5402503;26;20060;-78
2024/04/18 10:01:42;;;;;;;5.20;1.35;;;13.30;99.90;;;;;;5432034;26;20364;-79
2024/04/18 10:04:08;;;;;;;3.53;1.60;;;13.70;99.90;;;;;;5437632;26;20466;-78
2024/04/18 10:06:36;;;;;;;5.53;1.70;;;14.00;99.90;;;;;;5424466;26;20014;-79
2024/04/18 10:09:02;;;;;;;8.40;2.00;;;14.30;99.90;;;;;;5431861;26;20020;-79
2024/04/18 10:11:27;;;;;;;4.70;2.00;;;14.30;99.90;;;;;;5400252;26;20454;-78
2024/04/18 10:13:58;;;;;;;5.97;2.40;;;14.40;99.90;;;;;;5428447;26;20459;-79
2024/04/18 10:16:24;;;;;;;4.65;2.28;;;14.30;99.90;;;;;;5427559;26;20368;-78
2024/04/18 10:18:50;;;;;;;5.32;1.90;;;14.20;99.90;;;;;;5425452;26;20046;-78
2024/04/18 10:21:22;;;;;;;4.95;2.00;;;14.00;99.90;;;;;;5425429;26;20003;-79
2024/04/18 10:23:51;;;;;;;2.88;1.60;;;14.00;99.90;;;;;;5416772;26;19996;-79
2024/04/18 10:26:17;;;;;;;5.85;2.05;;;13.90;99.90;;;;;;5406062;26;20277;-80
2024/04/18 10:28:43;;;;;;;2.50;1.63;;;14.00;99.90;;;;;;5403022;26;20003;-80
2024/04/18 10:31:10;;;;;;;5.10;1.67;;;14.10;99.90;;;;;;5429175;26;20019;-80
2024/04/18 10:33:35;;;;;;;2.40;1.40;;;14.30;99.90;;;;;;5426477;26;20032;-79
2024/04/18 10:36:02;;;;;;;4.20;1.83;;;14.50;99.90;;;;;;5434634;26;19999;-79
2024/04/18 10:38:27;;;;;;;3.25;1.67;;;14.60;99.90;;;;;;5407036;26;20017;-79
2024/04/18 10:41:02;;;;;;;4.97;1.17;;;14.60;99.90;;;;;;5431422;26;19995;-79
2024/04/18 10:43:28;;;;;;;1.27;0.70;;;14.60;99.90;;;;;;5412251;26;20067;-79
2024/04/18 10:45:55;;;;;;;6.82;1.10;;;14.60;99.90;;;;;;5401421;26;20015;-79
2024/04/18 10:48:21;;;;;;;2.28;0.38;;;14.50;99.90;;;;;;5441939;26;20031;-79
2024/04/18 10:50:49;;;;;;;1.75;0.50;;;14.20;99.90;;;;;;5401868;26;21001;-79
2024/04/18 10:53:15;;;;;;;0.30;0.20;;;14.20;99.90;;;;;;5430727;26;20004;-79
2024/04/18 10:55:46;;;;;;;1.70;1.10;;;14.30;99.90;;;;;;5408292;26;20419;-79
2024/04/18 10:58:15;;;;;;;2.63;0.60;;;14.30;99.90;;;;;;5424524;26;20547;-79
2024/04/18 11:00:42;;;;;;;5.10;0.77;;;14.30;99.90;;;;;;5419173;26;20009;-79
2024/04/18 11:03:07;;;;;;;2.28;0.55;;;14.30;99.90;;;;;;5426497;26;19994;-80
2024/04/18 11:05:33;;;;;;;2.08;0.70;;;14.50;99.90;;;;;;5418749;26;19996;-79
2024/04/18 11:07:59;;;;;;;0.95;0.60;;;14.50;99.90;;;;;;5376384;26;20037;-80
2024/04/18 11:10:25;;;;;;;3.92;0.50;;;14.60;99.90;;;;;;5438995;26;20010;-80
2024/04/18 11:12:50;;;;;;;1.38;0.70;;;14.90;99.90;;;;;;5424539;26;20007;-79
2024/04/18 11:15:17;;;;;;;2.15;0.47;;;15.00;99.90;;;;;;5405720;26;20447;-78
2024/04/18 11:17:42;;;;;;;3.38;0.70;;;15.10;99.90;;;;;;5406086;26;20491;-78
2024/04/18 11:20:13;;;;;;;3.00;0.90;;;15.50;99.90;;;;;;5413757;26;19991;-79
2024/04/18 11:22:39;;;;;;;1.88;0.65;;;15.40;99.90;;;;;;5379859;26;20018;-79
2024/04/18 11:25:05;;;;;;;3.65;0.63;;;15.40;99.90;;;;;;5441195;26;20042;-78
2024/04/18 11:27:34;;;;;;;5.50;0.63;;;15.70;99.90;;;;;;5437409;26;20057;-78
2024/04/18 11:30:01;;;;;;;2.83;0.47;;;15.70;99.90;;;;;;5427876;26;20002;-78
2024/04/18 11:32:27;;;;;;;3.60;0.90;;;15.90;99.90;;;;;;5407839;26;20350;-77
2024/04/18 11:34:52;;;;;;;6.28;0.70;;;16.10;99.90;;;;;;5407737;26;20098;-78
2024/04/18 11:37:18;;;;;;;2.28;0.63;;;16.20;99.90;;;;;;5424548;26;20003;-78
2024/04/18 11:39:43;;;;;;;1.90;0.73;;;16.20;99.90;;;;;;5409781;26;20003;-77
2024/04/18 11:42:09;;;;;;;2.95;0.73;;;16.10;99.90;;;;;;5416747;26;19999;-77
2024/04/18 11:44:38;;;;;;;2.03;0.50;;;16.00;99.90;;;;;;5397109;26;20350;-77
2024/04/18 11:47:04;;;;;;;2.08;0.57;;;15.90;99.90;;;;;;5374004;26;20000;-77
2024/04/18 11:49:29;;;;;;;1.98;0.45;;;15.70;99.90;;;;;;5431037;26;20073;-77
2024/04/18 11:51:56;;;;;;;3.70;0.73;;;15.70;99.90;;;;;;5391824;26;20026;-77
2024/04/18 11:54:22;;;;;;;6.50;0.60;;;15.70;99.90;;;;;;5424690;26;20022;-78
2024/04/18 11:56:47;;;;;;;1.30;0.60;;;15.60;99.90;;;;;;5427366;26;20459;-77
2024/04/18 11:59:14;;;;;;;4.55;0.82;;;15.40;99.90;;;;;;5375564;26;20011;-76
2024/04/18 12:01:42;;;;;;;1.42;0.57;;;15.50;99.90;;;;;;5405059;26;20035;-77
2024/04/18 12:04:10;;;;;;;2.30;0.52;;;15.50;99.90;;;;;;5409615;26;20013;-77
2024/04/18 12:06:36;;;;;;;1.83;0.52;;;15.60;99.90;;;;;;5436759;26;20359;-77
2024/04/18 12:09:02;;;;;;;1.35;0.50;;;15.60;99.90;;;;;;5427538;26;20000;-78
2024/04/18 12:11:29;;;;;;;1.65;0.40;;;15.90;99.90;;;;;;5400331;26;20452;-77
2024/04/18 12:13:55;;;;;;;1.80;0.50;;;16.00;99.90;;;;;;5431080;26;20002;-77
2024/04/18 12:16:21;;;;;;;2.67;0.60;;;16.60;99.90;;;;;;5397972;26;20423;-79
2024/04/18 12:18:47;;;;;;;1.65;0.50;;;16.40;99.90;;;;;;5389267;26;19996;-78
2024/04/18 12:21:16;;;;;;;3.40;0.68;;;16.50;99.90;;;;;;5400980;26;20653;-78
2024/04/18 12:23:42;;;;;;;1.67;0.75;;;16.60;99.90;;;;;;5425328;26;20011;-77
2024/04/18 12:26:11;;;;;;;3.53;0.43;;;16.60;99.90;;;;;;5434827;26;20003;-77
2024/04/18 12:28:37;;;;;;;1.75;0.57;;;16.70;99.90;;;;;;5374875;26;20013;-78
2024/04/18 12:31:03;;;;;;;0.82;0.35;;;17.10;99.90;;;;;;5434517;26;20395;-78
2024/04/18 12:33:28;;;;;;;2.53;0.60;;;17.20;99.90;;;;;;5394809;26;20006;-77
2024/04/18 12:35:54;;;;;;;1.75;0.32;;;17.30;99.90;;;;;;5402847;26;19995;-77
2024/04/18 12:38:20;;;;;;;3.05;0.57;;;17.40;99.90;;;;;;5393915;26;19991;-77
2024/04/18 12:40:45;;;;;;;1.30;0.75;;;17.50;99.90;;;;;;5429972;26;20001;-77
2024/04/18 12:43:12;;;;;;;1.85;0.50;;;17.60;99.90;;;;;;5429402;26;19995;-77
2024/04/18 12:45:37;;;;;;;1.08;0.43;;;17.50;95.30;;;;;;5371772;26;20007;-78
2024/04/18 12:48:04;;;;;;;3.50;0.60;;;17.50;99.90;;;;;;5386338;26;20002;-77